createdAt,value
2023-03-27T00:01:39.073Z,98805.54
2023-03-27T00:04:11.467Z,98805.67
2023-03-27T00:06:49.256Z,98807.38
2023-03-27T00:09:20.351Z,98808.16
2023-03-27T00:11:49.697Z,98803.83
2023-03-27T00:14:20.612Z,98810.80
2023-03-27T00:16:50.016Z,98806.96
2023-03-27T00:19:22.943Z,98808.79
2023-03-27T00:21:52.569Z,98805.15
2023-03-27T00:24:22.558Z,98802.48
2023-03-27T00:26:51.463Z,98801.36
2023-03-27T00:29:22.409Z,98801.25
2023-03-27T00:31:53.656Z,98804.98
2023-03-27T00:34:22.488Z,98807.73
2023-03-27T00:36:52.408Z,98808.42
2023-03-27T00:39:21.544Z,98807.61
2023-03-27T00:41:50.647Z,98807.42
2023-03-27T00:44:34.641Z,98801.52
2023-03-27T00:47:05.167Z,98803.58
2023-03-27T00:49:35.714Z,98801.06
2023-03-27T00:52:05.079Z,98803.77
2023-03-27T00:54:39.140Z,98802.35
2023-03-27T00:57:10.122Z,98803.34
2023-03-27T00:59:40.436Z,98805.60
2023-03-27T01:02:09.515Z,98809.38
2023-03-27T01:04:39.357Z,98802.14
2023-03-27T01:07:09.075Z,98807.27
2023-03-27T01:09:39.120Z,98808.59
2023-03-27T01:12:14.957Z,98808.44
2023-03-27T01:15:02.853Z,98809.86
2023-03-27T01:17:38.315Z,98811.52
2023-03-27T01:20:32.908Z,98815.10
2023-03-27T01:23:36.201Z,98810.58
2023-03-27T01:26:59.813Z,98812.63
2023-03-27T01:29:41.567Z,98815.66
2023-03-27T01:32:19.690Z,98815.08
2023-03-27T01:35:01.130Z,98815.70
2023-03-27T01:37:41.657Z,98812.27
2023-03-27T01:40:26.126Z,98809.50
2023-03-27T01:43:04.637Z,98813.13
2023-03-27T01:45:53.765Z,98815.13
2023-03-27T01:48:33.633Z,98815.70
2023-03-27T01:51:06.975Z,98812.94
2023-03-27T01:53:42.645Z,98809.83
2023-03-27T01:56:18.696Z,98815.11
2023-03-27T01:58:48.371Z,98817.95
2023-03-27T02:01:23.582Z,98821.38
2023-03-27T02:03:54.944Z,98821.66
2023-03-27T02:06:33.759Z,98817.63
2023-03-27T02:09:16.698Z,98813.91
2023-03-27T02:11:48.403Z,98807.00
2023-03-27T02:14:23.137Z,98813.23
2023-03-27T02:16:54.605Z,98818.92
2023-03-27T02:19:30.424Z,98826.00
2023-03-27T02:21:59.746Z,98827.09
2023-03-27T02:24:29.186Z,98829.76
2023-03-27T02:27:13.475Z,98831.23
2023-03-27T02:29:55.136Z,98831.14
2023-03-27T02:32:43.033Z,98834.21
2023-03-27T02:35:30.212Z,98837.52
2023-03-27T02:37:59.423Z,98835.50
2023-03-27T02:40:46.616Z,98843.31
2023-03-27T02:43:43.517Z,98847.80
2023-03-27T02:46:22.036Z,98847.79
2023-03-27T02:48:57.454Z,98846.77
2023-03-27T02:51:29.136Z,98843.25
2023-03-27T02:54:06.939Z,98845.23
2023-03-27T02:56:40.932Z,98850.99
2023-03-27T02:59:22.668Z,98856.14
2023-03-27T03:01:52.726Z,98863.50
2023-03-27T03:04:29.099Z,98874.41
2023-03-27T03:07:21.232Z,98875.45
2023-03-27T03:09:50.237Z,98881.29
2023-03-27T03:12:18.943Z,98882.38
2023-03-27T03:14:48.838Z,98886.19
2023-03-27T03:17:17.920Z,98887.23
2023-03-27T03:19:50.933Z,98885.11
2023-03-27T03:22:19.804Z,98882.58
2023-03-27T03:24:48.627Z,98879.92
2023-03-27T03:27:21.324Z,98887.41
2023-03-27T03:29:59.213Z,98887.31
2023-03-27T03:32:38.329Z,98886.31
2023-03-27T03:35:10.228Z,98890.69
2023-03-27T03:37:39.466Z,98892.70
2023-03-27T03:40:12.295Z,98891.90
2023-03-27T03:42:45.745Z,98894.23
2023-03-27T03:45:21.218Z,98901.02
2023-03-27T03:47:50.827Z,98904.64
2023-03-27T03:50:19.673Z,98905.74
2023-03-27T03:52:49.058Z,98907.20
2023-03-27T03:55:17.875Z,98908.45
2023-03-27T03:57:50.480Z,98910.69
2023-03-27T04:00:27.162Z,98912.13
2023-03-27T04:02:58.389Z,98915.50
2023-03-27T04:05:27.416Z,98920.75
2023-03-27T04:07:59.732Z,98919.13
2023-03-27T04:10:41.929Z,98923.04
2023-03-27T04:13:26.321Z,98920.20
2023-03-27T04:16:02.103Z,98920.54
2023-03-27T04:18:41.810Z,98922.77
2023-03-27T04:21:18.232Z,98925.73
2023-03-27T04:23:48.608Z,98924.51
2023-03-27T04:26:26.743Z,98924.41
2023-03-27T04:29:14.108Z,98929.76
2023-03-27T04:32:20.866Z,98928.42
2023-03-27T04:35:11.213Z,98924.23
2023-03-27T04:37:49.367Z,98922.31
2023-03-27T04:40:46.363Z,98922.52
2023-03-27T04:43:17.645Z,98919.21
2023-03-27T04:45:49.297Z,98921.83
2023-03-27T04:48:18.665Z,98920.02
2023-03-27T04:50:50.729Z,98921.05
2023-03-27T04:53:38.193Z,98912.50
2023-03-27T04:56:08.591Z,98912.97
2023-03-27T04:58:41.834Z,98906.48
2023-03-27T05:01:13.987Z,98908.48
2023-03-27T05:04:04.700Z,98905.05
2023-03-27T05:06:44.553Z,98904.86
2023-03-27T05:09:16.165Z,98906.34
2023-03-27T05:11:49.931Z,98911.37
2023-03-27T05:14:23.779Z,98913.34
2023-03-27T05:16:58.755Z,98919.05
2023-03-27T05:19:27.725Z,98923.17
2023-03-27T05:22:01.716Z,98924.84
2023-03-27T05:24:31.926Z,98922.19
2023-03-27T05:27:01.788Z,98927.75
2023-03-27T05:29:30.883Z,98924.13
2023-03-27T05:32:16.370Z,98925.98
2023-03-27T05:34:51.144Z,98924.77
2023-03-27T05:37:21.675Z,98929.42
2023-03-27T05:40:09.541Z,98936.07
2023-03-27T05:42:43.389Z,98933.39
2023-03-27T05:45:12.528Z,98932.56
2023-03-27T05:48:02.038Z,98935.52
2023-03-27T05:50:35.000Z,98941.84
2023-03-27T05:53:11.434Z,98943.77
2023-03-27T05:55:46.650Z,98943.17
2023-03-27T05:58:20.337Z,98937.36
2023-03-27T06:00:50.889Z,98931.42
2023-03-27T06:03:24.616Z,98932.98
2023-03-27T06:06:12.580Z,98931.13
2023-03-27T06:08:44.893Z,98935.95
2023-03-27T06:11:15.360Z,98938.27
2023-03-27T06:13:51.860Z,98931.29
2023-03-27T06:16:26.797Z,98931.98
2023-03-27T06:19:01.651Z,98932.02
2023-03-27T06:21:32.496Z,98930.81
2023-03-27T06:24:03.460Z,98931.89
2023-03-27T06:26:35.901Z,98932.96
2023-03-27T06:29:07.997Z,98934.05
2023-03-27T06:31:39.285Z,98930.65
2023-03-27T06:34:30.996Z,98937.52
2023-03-27T06:37:16.885Z,98939.42
2023-03-27T06:39:46.367Z,98937.27
2023-03-27T06:42:16.299Z,98937.38
2023-03-27T06:44:54.651Z,98938.08
2023-03-27T06:48:13.644Z,98940.52
2023-03-27T06:50:47.874Z,98937.72
2023-03-27T06:53:27.148Z,98941.02
2023-03-27T06:55:58.429Z,98941.48
2023-03-27T06:58:31.862Z,98942.30
2023-03-27T07:01:01.783Z,98940.63
2023-03-27T07:03:37.835Z,98940.23
2023-03-27T07:06:37.835Z,98943.71
2023-03-27T07:09:11.514Z,98944.27
2023-03-27T07:11:47.726Z,98948.82
2023-03-27T07:14:17.176Z,98950.71
2023-03-27T07:16:46.793Z,98951.50
2023-03-27T07:19:19.508Z,98956.88
2023-03-27T07:21:53.012Z,98954.11
2023-03-27T07:24:22.135Z,98960.52
2023-03-27T07:26:51.570Z,98957.48
2023-03-27T07:29:25.742Z,98957.39
2023-03-27T07:32:00.656Z,98958.88
2023-03-27T07:34:42.880Z,98959.59
2023-03-27T07:37:43.367Z,98951.98
2023-03-27T07:40:39.850Z,98950.19
2023-03-27T07:43:34.295Z,98953.13
2023-03-27T07:46:04.256Z,98954.64
2023-03-27T07:48:33.427Z,98954.23
2023-03-27T07:51:13.723Z,98952.57
2023-03-27T07:53:44.046Z,98955.95
2023-03-27T07:56:22.672Z,98959.33
2023-03-27T07:58:53.537Z,98955.73
2023-03-27T08:01:23.179Z,98949.52
2023-03-27T08:03:55.651Z,98951.37
2023-03-27T08:06:25.283Z,98947.20
2023-03-27T08:08:54.437Z,98948.70
2023-03-27T08:11:30.800Z,98946.09
2023-03-27T08:14:00.693Z,98943.55
2023-03-27T08:16:30.384Z,98948.48
2023-03-27T08:19:02.663Z,98941.58
2023-03-27T08:21:33.716Z,98937.66
2023-03-27T08:24:05.198Z,98939.67
2023-03-27T08:26:37.281Z,98942.57
2023-03-27T08:29:10.201Z,98943.08
2023-03-27T08:31:41.378Z,98943.41
2023-03-27T08:34:10.951Z,98940.86
2023-03-27T08:36:45.576Z,98938.13
2023-03-27T08:39:15.581Z,98933.04
2023-03-27T08:42:00.127Z,98932.71
2023-03-27T08:44:40.389Z,98934.73
2023-03-27T08:47:19.847Z,98936.20
2023-03-27T08:50:45.160Z,98936.35
2023-03-27T08:53:29.578Z,98934.48
2023-03-27T08:56:01.700Z,98934.34
2023-03-27T08:58:38.635Z,98940.46
2023-03-27T09:01:29.774Z,98932.98
2023-03-27T09:04:20.088Z,98931.13
2023-03-27T09:07:06.407Z,98930.91
2023-03-27T09:09:59.607Z,98932.88
2023-03-27T09:12:59.539Z,98929.02
2023-03-27T09:15:42.455Z,98930.84
2023-03-27T09:18:17.817Z,98927.51
2023-03-27T09:20:53.076Z,98930.48
2023-03-27T09:23:26.330Z,98925.95
2023-03-27T09:26:21.978Z,98924.67
2023-03-27T09:29:23.618Z,98928.35
2023-03-27T09:31:59.371Z,98928.91
2023-03-27T09:34:30.934Z,98927.07
2023-03-27T09:37:00.521Z,98923.55
2023-03-27T09:39:34.303Z,98925.80
2023-03-27T09:42:19.386Z,98925.81
2023-03-27T09:44:50.869Z,98928.73
2023-03-27T09:47:23.635Z,98926.09
2023-03-27T09:50:15.630Z,98928.48
2023-03-27T09:52:55.039Z,98925.76
2023-03-27T09:55:37.295Z,98920.89
2023-03-27T09:58:28.241Z,98923.14
2023-03-27T10:01:09.393Z,98925.79
2023-03-27T10:03:51.792Z,98927.89
2023-03-27T10:06:32.214Z,98927.90
2023-03-27T10:09:23.322Z,98924.65
2023-03-27T10:12:01.214Z,98922.85
2023-03-27T10:14:52.824Z,98922.38
2023-03-27T10:17:38.367Z,98921.45
2023-03-27T10:20:19.489Z,98923.73
2023-03-27T10:22:56.107Z,98916.97
2023-03-27T10:25:39.927Z,98914.10
2023-03-27T10:28:23.994Z,98917.97
2023-03-27T10:31:34.249Z,98912.58
2023-03-27T10:34:32.970Z,98920.21
2023-03-27T10:37:30.099Z,98918.61
2023-03-27T10:40:21.175Z,98920.41
2023-03-27T10:42:56.687Z,98916.38
2023-03-27T10:45:27.071Z,98914.17
2023-03-27T10:48:01.442Z,98910.19
2023-03-27T10:50:46.128Z,98913.38
2023-03-27T10:53:25.281Z,98911.42
2023-03-27T10:56:19.516Z,98911.46
2023-03-27T10:59:09.039Z,98911.58
2023-03-27T11:01:42.439Z,98913.96
2023-03-27T11:04:21.962Z,98911.77
2023-03-27T11:06:57.707Z,98909.39
2023-03-27T11:09:31.446Z,98902.52
2023-03-27T11:12:14.952Z,98903.01
2023-03-27T11:15:01.642Z,98903.48
2023-03-27T11:17:47.385Z,98899.28
2023-03-27T11:20:37.736Z,98902.30
2023-03-27T11:23:26.571Z,98902.80
2023-03-27T11:26:16.710Z,98894.80
2023-03-27T11:29:09.954Z,98902.04
2023-03-27T11:31:54.919Z,98891.79
2023-03-27T11:35:02.672Z,98889.86
2023-03-27T11:38:17.803Z,98883.00
2023-03-27T11:40:51.781Z,98880.16
2023-03-27T11:43:21.011Z,98875.63
2023-03-27T11:45:57.455Z,98875.56
2023-03-27T11:48:54.415Z,98872.59
2023-03-27T11:51:37.294Z,98875.67
2023-03-27T11:54:28.212Z,98873.06
2023-03-27T11:57:06.784Z,98873.98
2023-03-27T12:00:12.024Z,98873.23
2023-03-27T12:03:37.389Z,98875.25
2023-03-27T12:06:17.929Z,98873.67
2023-03-27T12:09:04.700Z,98869.63
2023-03-27T12:11:43.547Z,98861.93
2023-03-27T12:14:23.951Z,98863.63
2023-03-27T12:17:04.078Z,98860.18
2023-03-27T12:20:27.444Z,98862.48
2023-03-27T12:23:40.644Z,98856.30
2023-03-27T12:26:35.575Z,98855.70
2023-03-27T12:29:47.685Z,98858.76
2023-03-27T12:33:10.975Z,98862.27
2023-03-27T12:35:42.803Z,98862.91
2023-03-27T12:38:35.262Z,98856.58
2023-03-27T12:41:19.390Z,98862.13
2023-03-27T12:43:59.953Z,98855.35
2023-03-27T12:46:39.845Z,98848.98
2023-03-27T12:49:12.380Z,98845.61
2023-03-27T12:51:52.341Z,98840.05
2023-03-27T12:54:39.551Z,98842.34
2023-03-27T12:57:44.702Z,98840.65
2023-03-27T13:00:21.856Z,98841.20
2023-03-27T13:03:31.862Z,98837.70
2023-03-27T13:06:45.559Z,98834.84
2023-03-27T13:09:19.683Z,98832.59
2023-03-27T13:12:32.970Z,98832.62
2023-03-27T13:15:42.405Z,98829.95
2023-03-27T13:18:21.222Z,98829.25
2023-03-27T13:21:22.219Z,98827.95
2023-03-27T13:24:19.514Z,98828.96
2023-03-27T13:27:15.793Z,98827.66
2023-03-27T13:29:49.194Z,98826.69
2023-03-27T13:33:08.854Z,98819.91
2023-03-27T13:36:12.117Z,98821.39
2023-03-27T13:38:53.012Z,98817.46
2023-03-27T13:41:48.666Z,98812.71
2023-03-27T13:44:44.097Z,98811.19
2023-03-27T13:47:15.947Z,98806.98
2023-03-27T13:50:14.383Z,98804.14
2023-03-27T13:53:06.649Z,98801.25
2023-03-27T13:56:32.214Z,98804.92
2023-03-27T13:59:39.076Z,98807.27
2023-03-27T14:02:51.420Z,98805.08
2023-03-27T14:05:45.149Z,98801.05
2023-03-27T14:08:22.740Z,98796.07
2023-03-27T14:11:30.648Z,98796.63
2023-03-27T14:14:47.983Z,98799.31
2023-03-27T14:17:25.104Z,98799.11
2023-03-27T14:20:16.202Z,98798.52
2023-03-27T14:23:08.558Z,98797.91
2023-03-27T14:26:06.300Z,98795.17
2023-03-27T14:28:59.273Z,98790.22
2023-03-27T14:31:35.965Z,98787.65
2023-03-27T14:34:26.041Z,98791.09
2023-03-27T14:37:39.541Z,98786.99
2023-03-27T14:40:33.760Z,98782.24
2023-03-27T14:43:06.667Z,98786.27
2023-03-27T14:45:39.907Z,98782.73
2023-03-27T14:48:29.441Z,98781.89
2023-03-27T14:51:02.415Z,98780.95
2023-03-27T14:53:37.056Z,98784.55
2023-03-27T14:56:31.431Z,98780.78
2023-03-27T14:59:29.269Z,98779.34
2023-03-27T15:02:04.066Z,98779.13
2023-03-27T15:04:33.433Z,98773.79
2023-03-27T15:07:19.827Z,98776.07
2023-03-27T15:10:15.535Z,98771.75
2023-03-27T15:13:03.029Z,98774.23
2023-03-27T15:15:40.730Z,98776.29
2023-03-27T15:18:15.956Z,98772.70
2023-03-27T15:20:45.229Z,98770.60
2023-03-27T15:23:42.854Z,98773.97
2023-03-27T15:26:12.351Z,98771.41
2023-03-27T15:28:46.590Z,98768.61
2023-03-27T15:31:16.002Z,98770.04
2023-03-27T15:34:02.620Z,98771.31
2023-03-27T15:36:34.620Z,98767.09
2023-03-27T15:39:04.586Z,98766.40
2023-03-27T15:41:33.843Z,98762.23
2023-03-27T15:44:09.291Z,98766.60
2023-03-27T15:47:10.784Z,98767.43
2023-03-27T15:49:42.338Z,98761.79
2023-03-27T15:52:33.652Z,98757.23
2023-03-27T15:55:04.392Z,98760.39
2023-03-27T15:57:34.127Z,98761.27
2023-03-27T16:00:10.110Z,98755.35
2023-03-27T16:02:48.024Z,98755.85
2023-03-27T16:05:17.952Z,98759.17
2023-03-27T16:07:48.890Z,98755.88
2023-03-27T16:10:31.652Z,98756.36
2023-03-27T16:13:06.850Z,98756.25
2023-03-27T16:15:43.126Z,98749.83
2023-03-27T16:18:19.226Z,98752.11
2023-03-27T16:20:49.340Z,98752.46
2023-03-27T16:23:19.016Z,98754.45
2023-03-27T16:26:09.534Z,98751.15
2023-03-27T16:28:38.916Z,98755.92
2023-03-27T16:31:16.435Z,98758.30
2023-03-27T16:33:47.564Z,98758.82
2023-03-27T16:36:17.928Z,98760.45
2023-03-27T16:38:48.943Z,98761.63
2023-03-27T16:41:18.337Z,98761.70
2023-03-27T16:43:49.238Z,98760.87
2023-03-27T16:46:36.403Z,98761.04
2023-03-27T16:49:05.637Z,98762.55
2023-03-27T16:51:36.276Z,98764.42
2023-03-27T16:54:05.955Z,98761.39
2023-03-27T16:56:35.778Z,98766.70
2023-03-27T16:59:05.236Z,98766.89
2023-03-27T17:01:34.757Z,98767.11
2023-03-27T17:04:04.420Z,98764.70
2023-03-27T17:06:34.168Z,98763.94
2023-03-27T17:09:03.397Z,98764.34
2023-03-27T17:11:35.226Z,98765.90
2023-03-27T17:14:04.578Z,98769.67
2023-03-27T17:16:34.317Z,98768.69
2023-03-27T17:19:04.003Z,98771.86
2023-03-27T17:21:33.226Z,98769.30
2023-03-27T17:24:04.515Z,98767.88
2023-03-27T17:26:35.025Z,98767.59
2023-03-27T17:29:06.518Z,98774.27
2023-03-27T17:31:35.918Z,98771.23
2023-03-27T17:34:05.099Z,98776.26
2023-03-27T17:36:44.753Z,98773.26
2023-03-27T17:39:16.649Z,98767.04
2023-03-27T17:41:46.067Z,98767.38
2023-03-27T17:44:15.302Z,98769.71
2023-03-27T17:46:44.386Z,98769.39
2023-03-27T17:49:13.819Z,98766.90
2023-03-27T17:51:43.793Z,98764.14
2023-03-27T17:54:13.338Z,98768.69
2023-03-27T17:56:43.507Z,98766.35
2023-03-27T17:59:13.060Z,98759.13
2023-03-27T18:01:43.461Z,98758.77
2023-03-27T18:04:12.700Z,98755.64
2023-03-27T18:06:42.020Z,98749.17
2023-03-27T18:09:11.325Z,98753.23
2023-03-27T18:11:40.695Z,98755.27
2023-03-27T18:14:09.784Z,98759.64
2023-03-27T18:16:39.310Z,98758.21
2023-03-27T18:19:09.354Z,98757.07
2023-03-27T18:21:38.825Z,98762.75
2023-03-27T18:24:08.947Z,98764.10
2023-03-27T18:26:38.257Z,98766.58
2023-03-27T18:29:08.428Z,98767.48
2023-03-27T18:31:39.040Z,98768.93
2023-03-27T18:34:08.812Z,98769.39
2023-03-27T18:36:37.894Z,98767.84
2023-03-27T18:42:30.906Z,98767.79
2023-03-27T18:44:59.075Z,98772.66
2023-03-27T18:47:27.437Z,98771.42
2023-03-27T18:49:58.088Z,98770.73
2023-03-27T18:52:26.474Z,98770.02
2023-03-27T18:54:54.634Z,98764.52
2023-03-27T18:57:22.832Z,98763.40
2023-03-27T18:59:50.950Z,98762.88
2023-03-27T19:02:24.225Z,98761.62
2023-03-27T19:04:53.347Z,98762.42
2023-03-27T19:07:21.283Z,98763.80
2023-03-27T19:09:49.167Z,98761.17
2023-03-27T19:12:17.116Z,98767.11
2023-03-27T19:15:13.419Z,98762.52
2023-03-27T19:18:28.190Z,98767.45
2023-03-27T19:21:16.019Z,98766.44
2023-03-27T19:23:48.551Z,98763.04
2023-03-27T19:26:19.978Z,98762.63
2023-03-27T19:28:47.987Z,98759.68
2023-03-27T19:31:17.215Z,98737.42
2023-03-27T19:33:45.641Z,98736.42
2023-03-27T19:36:13.373Z,98734.34
2023-03-27T19:38:41.946Z,98734.79
2023-03-27T19:41:12.597Z,98730.71
2023-03-27T19:43:41.129Z,98730.38
2023-03-27T19:46:16.506Z,98729.89
2023-03-27T19:48:47.112Z,98720.45
2023-03-27T19:51:22.701Z,98718.39
2023-03-27T19:53:52.745Z,98713.41
2023-03-27T19:56:23.118Z,98715.58
2023-03-27T19:58:52.110Z,98717.91
2023-03-27T20:01:21.750Z,98717.37
2023-03-27T20:03:50.276Z,98713.45
2023-03-27T20:06:19.573Z,98714.18
2023-03-27T20:08:47.626Z,98713.14
2023-03-27T20:11:16.464Z,98713.60
2023-03-27T20:13:55.367Z,98708.16
2023-03-27T20:16:26.356Z,98703.59
2023-03-27T20:19:02.848Z,98694.18
2023-03-27T20:21:34.000Z,98694.27
2023-03-27T20:24:01.978Z,98688.02
2023-03-27T20:26:38.986Z,98686.41
2023-03-27T20:29:16.749Z,98689.30
2023-03-27T20:31:46.309Z,98686.07
2023-03-27T20:34:14.232Z,98680.30
2023-03-27T20:36:43.171Z,98677.73
2023-03-27T20:39:22.658Z,98672.48
2023-03-27T20:41:50.872Z,98666.08
2023-03-27T20:44:18.683Z,98667.05
2023-03-27T20:46:51.005Z,98666.52
2023-03-27T20:49:40.060Z,98663.19
2023-03-27T20:52:13.021Z,98664.95
2023-03-27T20:54:41.063Z,98663.56
2023-03-27T20:57:10.983Z,98663.13
2023-03-27T20:59:39.128Z,98672.11
2023-03-27T21:02:07.589Z,98675.16
2023-03-27T21:04:35.588Z,98677.51
2023-03-27T21:07:04.942Z,98671.66
2023-03-27T21:09:33.562Z,98670.42
2023-03-27T21:12:01.528Z,98670.80
2023-03-27T21:14:30.179Z,98671.05
2023-03-27T21:16:57.904Z,98670.65
2023-03-27T21:19:25.944Z,98676.66
2023-03-27T21:21:53.819Z,98677.69
2023-03-27T21:24:21.582Z,98667.73
2023-03-27T21:26:49.756Z,98654.14
2023-03-27T21:29:17.634Z,98641.52
2023-03-27T21:31:46.082Z,98640.84
2023-03-27T21:34:13.701Z,98637.50
2023-03-27T21:36:41.826Z,98642.03
2023-03-27T21:39:10.736Z,98645.18
2023-03-27T21:41:38.486Z,98630.22
2023-03-27T21:44:06.295Z,98628.39
2023-03-27T21:46:34.554Z,98626.61
2023-03-27T21:49:02.989Z,98625.96
2023-03-27T21:51:30.637Z,98621.45
2023-03-27T21:54:03.245Z,98617.95
2023-03-27T21:56:31.338Z,98618.84
2023-03-27T21:58:59.285Z,98616.83
2023-03-27T22:01:27.262Z,98618.27
2023-03-27T22:04:01.828Z,98616.63
2023-03-27T22:06:30.448Z,98614.56
2023-03-27T22:08:58.060Z,98615.73
2023-03-27T22:11:26.292Z,98613.17
2023-03-27T22:13:54.676Z,98613.48
2023-03-27T22:16:23.050Z,98613.30
2023-03-27T22:18:51.589Z,98614.25
2023-03-27T22:21:27.735Z,98620.83
2023-03-27T22:23:56.320Z,98617.57
2023-03-27T22:26:30.183Z,98613.96
2023-03-27T22:28:58.450Z,98615.41
2023-03-27T22:31:26.923Z,98615.75
2023-03-27T22:33:55.540Z,98613.18
2023-03-27T22:36:24.242Z,98612.71
2023-03-27T22:38:51.926Z,98612.84
2023-03-27T22:41:20.432Z,98612.34
2023-03-27T22:43:49.778Z,98617.18
2023-03-27T22:46:19.961Z,98613.73
2023-03-27T22:48:54.634Z,98612.41
2023-03-27T22:51:22.870Z,98609.45
2023-03-27T22:53:53.042Z,98606.81
2023-03-27T22:56:20.842Z,98607.11
2023-03-27T22:58:48.717Z,98611.48
2023-03-27T23:01:16.458Z,98614.14
2023-03-27T23:03:44.601Z,98600.06
2023-03-27T23:06:19.957Z,98597.55
2023-03-27T23:08:49.280Z,98598.25
2023-03-27T23:11:17.245Z,98585.43
2023-03-27T23:13:48.354Z,98571.04
2023-03-27T23:16:18.418Z,98575.67
2023-03-27T23:18:46.688Z,98581.24
2023-03-27T23:21:17.510Z,98586.34
2023-03-27T23:23:45.864Z,98581.75
2023-03-27T23:26:14.177Z,98586.06
2023-03-27T23:28:42.800Z,98580.27
2023-03-27T23:31:12.725Z,98576.78
2023-03-27T23:33:43.105Z,98574.52
2023-03-27T23:36:14.779Z,98566.20
2023-03-27T23:38:44.497Z,98573.11
2023-03-27T23:41:12.994Z,98572.72
2023-03-27T23:43:40.735Z,98567.66
2023-03-27T23:46:11.344Z,98561.98
2023-03-27T23:48:41.061Z,98554.83
2023-03-27T23:51:11.406Z,98553.54
2023-03-27T23:53:41.306Z,98552.23
2023-03-27T23:56:09.438Z,98551.19
2023-03-27T23:58:37.448Z,98547.75
